createdAt,value
2017-12-03T00:00:45.102Z,2.20
2017-12-03T00:03:11.207Z,2.10
2017-12-03T00:05:38.409Z,2.40
2017-12-03T00:08:04.578Z,2.30
2017-12-03T00:10:30.767Z,2.30
2017-12-03T00:12:56.867Z,2.10
2017-12-03T00:15:22.978Z,1.90
2017-12-03T00:17:49.112Z,2.00
2017-12-03T00:20:15.324Z,2.20
2017-12-03T00:22:41.445Z,2.10
2017-12-03T00:25:07.563Z,2.10
2017-12-03T00:27:33.731Z,2.30
2017-12-03T00:30:00.162Z,2.30
2017-12-03T00:32:27.026Z,2.10
2017-12-03T00:34:53.156Z,2.10
2017-12-03T00:37:19.304Z,2.10
2017-12-03T00:39:45.446Z,1.90
2017-12-03T00:42:11.589Z,2.30
2017-12-03T00:44:37.701Z,2.30
2017-12-03T00:47:04.580Z,2.50
2017-12-03T00:49:30.819Z,2.40
2017-12-03T00:51:57.239Z,2.50
2017-12-03T00:54:23.809Z,2.30
2017-12-03T00:56:50.087Z,2.30
2017-12-03T00:59:16.233Z,2.30
2017-12-03T01:01:42.380Z,2.40
2017-12-03T01:04:10.572Z,2.90
2017-12-03T01:06:36.753Z,2.40
2017-12-03T01:09:02.917Z,2.20
2017-12-03T01:11:29.054Z,2.30
2017-12-03T01:13:55.173Z,2.20
2017-12-03T01:16:21.322Z,2.30
2017-12-03T01:18:47.465Z,2.10
2017-12-03T01:21:13.590Z,2.10
2017-12-03T01:23:39.728Z,2.00
2017-12-03T01:26:05.923Z,2.10
2017-12-03T01:28:32.129Z,2.10
2017-12-03T01:30:58.294Z,2.10
2017-12-03T01:33:24.431Z,2.20
2017-12-03T01:35:50.810Z,2.30
2017-12-03T01:38:17.901Z,2.30
2017-12-03T01:40:44.064Z,2.30
2017-12-03T01:43:10.416Z,2.40
2017-12-03T01:45:36.870Z,2.40
2017-12-03T01:48:03.280Z,2.40
2017-12-03T01:50:29.631Z,2.30
2017-12-03T01:52:55.969Z,2.20
2017-12-03T01:55:22.329Z,2.00
2017-12-03T01:57:49.384Z,2.10
2017-12-03T02:00:15.738Z,2.40
2017-12-03T02:02:42.126Z,2.20
2017-12-03T02:05:09.186Z,2.00
2017-12-03T02:07:36.945Z,2.00
2017-12-03T02:10:03.795Z,2.10
2017-12-03T02:12:30.734Z,2.10
2017-12-03T02:14:56.930Z,2.00
2017-12-03T02:17:23.051Z,2.30
2017-12-03T02:19:50.209Z,2.30
2017-12-03T02:22:16.296Z,2.30
2017-12-03T02:24:42.436Z,2.40
2017-12-03T02:27:08.572Z,2.50
2017-12-03T02:29:34.800Z,2.50
2017-12-03T02:32:01.000Z,2.50
2017-12-03T02:34:27.117Z,2.60
2017-12-03T02:36:53.282Z,2.40
2017-12-03T02:39:19.513Z,2.40
2017-12-03T02:41:45.892Z,2.70
2017-12-03T02:44:12.089Z,2.50
2017-12-03T02:46:38.324Z,2.50
2017-12-03T02:49:04.685Z,2.50
2017-12-03T02:51:30.843Z,2.50
2017-12-03T02:53:57.684Z,2.40
2017-12-03T02:56:23.988Z,2.50
2017-12-03T02:58:50.303Z,2.40
2017-12-03T03:01:16.657Z,2.40
2017-12-03T03:03:43.091Z,2.60
2017-12-03T03:06:09.615Z,2.50
2017-12-03T03:08:36.887Z,2.40
2017-12-03T03:11:03.227Z,2.40
2017-12-03T03:13:29.539Z,2.50
2017-12-03T03:15:55.650Z,2.30
2017-12-03T03:18:21.978Z,2.40
2017-12-03T03:20:48.288Z,2.30
2017-12-03T03:23:15.177Z,2.30
2017-12-03T03:25:41.287Z,2.30
2017-12-03T03:28:08.268Z,2.40
2017-12-03T03:30:34.393Z,2.40
2017-12-03T03:33:01.692Z,2.60
2017-12-03T03:35:28.048Z,2.50
2017-12-03T03:37:54.366Z,2.50
2017-12-03T03:40:21.134Z,2.50
2017-12-03T03:42:47.486Z,2.40
2017-12-03T03:45:13.600Z,2.50
2017-12-03T03:47:39.906Z,2.50
2017-12-03T03:50:06.973Z,2.40
2017-12-03T03:52:33.202Z,2.40
2017-12-03T03:54:59.356Z,2.50
2017-12-03T03:57:25.674Z,2.50
2017-12-03T03:59:52.017Z,2.40
2017-12-03T04:02:18.903Z,2.50
2017-12-03T04:04:45.020Z,2.50
2017-12-03T04:07:11.176Z,2.50
2017-12-03T04:09:37.517Z,2.60
2017-12-03T04:12:03.889Z,2.50
2017-12-03T04:14:30.211Z,2.40
2017-12-03T04:16:56.528Z,2.60
2017-12-03T04:19:23.648Z,2.60
2017-12-03T04:21:49.808Z,2.60
2017-12-03T04:24:15.916Z,2.60
2017-12-03T04:26:42.009Z,2.60
2017-12-03T04:29:09.060Z,2.60
2017-12-03T04:31:35.363Z,2.60
2017-12-03T04:34:01.463Z,2.60
2017-12-03T04:36:27.554Z,2.60
2017-12-03T04:38:53.877Z,2.60
2017-12-03T04:41:20.526Z,2.50
2017-12-03T04:43:46.783Z,2.50
2017-12-03T04:46:13.747Z,2.30
2017-12-03T04:48:40.088Z,2.50
2017-12-03T04:51:07.256Z,2.50
2017-12-03T04:53:33.606Z,2.50
2017-12-03T04:55:59.924Z,2.00
2017-12-03T04:58:26.256Z,2.30
2017-12-03T05:00:52.907Z,2.40
2017-12-03T05:03:19.592Z,2.30
2017-12-03T05:05:45.916Z,2.30
2017-12-03T05:08:12.275Z,2.30
2017-12-03T05:10:38.643Z,2.30
2017-12-03T05:13:05.755Z,2.30
2017-12-03T05:15:32.084Z,2.30
2017-12-03T05:17:58.408Z,2.30
2017-12-03T05:20:24.753Z,2.40
2017-12-03T05:22:51.209Z,2.30
2017-12-03T05:25:17.533Z,1.80
2017-12-03T05:27:43.856Z,2.20
2017-12-03T05:30:10.187Z,2.10
2017-12-03T05:32:36.532Z,2.10
2017-12-03T05:35:03.625Z,2.20
2017-12-03T05:37:29.947Z,2.20
2017-12-03T05:39:57.013Z,2.20
2017-12-03T05:42:23.344Z,2.20
2017-12-03T05:44:49.696Z,2.10
2017-12-03T05:47:19.648Z,2.10
2017-12-03T05:49:46.360Z,2.00
2017-12-03T05:52:13.447Z,2.20
2017-12-03T05:54:40.523Z,2.20
2017-12-03T05:57:06.641Z,2.20
2017-12-03T05:59:32.763Z,2.20
2017-12-03T06:01:59.627Z,2.30
2017-12-03T06:04:25.919Z,2.30
2017-12-03T06:06:52.065Z,2.30
2017-12-03T06:09:18.384Z,2.40
2017-12-03T06:11:45.473Z,2.30
2017-12-03T06:14:11.576Z,2.30
2017-12-03T06:16:37.701Z,2.30
2017-12-03T06:19:03.807Z,2.20
2017-12-03T06:21:29.940Z,2.30
2017-12-03T06:23:56.817Z,2.20
2017-12-03T06:26:23.762Z,2.30
2017-12-03T06:28:49.879Z,2.30
2017-12-03T06:31:15.979Z,2.30
2017-12-03T06:33:42.133Z,2.30
2017-12-03T06:36:08.549Z,2.30
2017-12-03T06:38:35.640Z,2.30
2017-12-03T06:41:01.974Z,2.30
2017-12-03T06:43:28.285Z,2.20
2017-12-03T06:45:54.631Z,2.20
2017-12-03T06:48:20.986Z,2.30
2017-12-03T06:50:47.299Z,2.40
2017-12-03T06:53:13.608Z,2.10
2017-12-03T06:55:39.913Z,2.40
2017-12-03T06:58:06.238Z,2.30
2017-12-03T07:00:33.304Z,2.40
2017-12-03T07:03:00.150Z,2.40
2017-12-03T07:05:27.017Z,2.40
2017-12-03T07:07:53.839Z,2.30
2017-12-03T07:10:19.953Z,2.30
2017-12-03T07:12:46.806Z,2.10
2017-12-03T07:15:12.971Z,2.10
2017-12-03T07:17:39.082Z,2.20
2017-12-03T07:20:05.208Z,2.20
2017-12-03T07:22:32.422Z,2.20
2017-12-03T07:24:59.407Z,2.20
2017-12-03T07:27:26.559Z,2.30
2017-12-03T07:29:52.873Z,2.30
2017-12-03T07:32:19.245Z,2.40
2017-12-03T07:34:45.571Z,2.40
2017-12-03T07:37:11.880Z,2.30
2017-12-03T07:39:38.210Z,2.30
2017-12-03T07:42:04.546Z,2.20
2017-12-03T07:44:31.601Z,2.30
2017-12-03T07:46:57.723Z,2.20
2017-12-03T07:49:23.886Z,2.30
2017-12-03T07:51:51.034Z,2.30
2017-12-03T07:54:17.907Z,2.40
2017-12-03T07:56:44.046Z,2.30
2017-12-03T07:59:10.944Z,2.40
2017-12-03T08:01:37.380Z,2.40
2017-12-03T08:04:03.486Z,2.40
2017-12-03T08:06:29.825Z,2.40
2017-12-03T08:08:56.904Z,2.40
2017-12-03T08:11:23.225Z,2.40
2017-12-03T08:13:50.281Z,2.50
2017-12-03T08:16:16.436Z,2.50
2017-12-03T08:18:42.801Z,2.60
2017-12-03T08:21:09.140Z,2.50
2017-12-03T08:23:35.452Z,2.40
2017-12-03T08:26:02.709Z,2.60
2017-12-03T08:28:28.807Z,2.50
2017-12-03T08:30:55.109Z,2.40
2017-12-03T08:33:21.416Z,2.40
2017-12-03T08:35:47.788Z,2.40
2017-12-03T08:38:14.903Z,2.40
2017-12-03T08:40:41.121Z,2.40
2017-12-03T08:43:07.630Z,2.30
2017-12-03T08:45:33.788Z,2.30
2017-12-03T08:48:03.704Z,2.30
2017-12-03T08:50:29.809Z,2.30
2017-12-03T08:52:56.059Z,2.30
2017-12-03T08:55:22.201Z,2.30
2017-12-03T08:57:48.375Z,2.30
2017-12-03T09:00:14.493Z,2.40
2017-12-03T09:02:40.613Z,2.40
2017-12-03T09:05:06.754Z,2.50
2017-12-03T09:07:32.880Z,2.50
2017-12-03T09:09:59.121Z,2.40
2017-12-03T09:12:25.358Z,2.30
2017-12-03T09:14:51.516Z,2.40
2017-12-03T09:17:17.721Z,2.50
2017-12-03T09:19:43.831Z,2.50
2017-12-03T09:22:09.952Z,2.50
2017-12-03T09:24:36.068Z,2.60
2017-12-03T09:27:02.935Z,2.50
2017-12-03T09:29:29.088Z,2.50
2017-12-03T09:31:55.180Z,2.50
2017-12-03T09:34:21.434Z,2.50
2017-12-03T09:36:48.096Z,2.40
2017-12-03T09:39:17.197Z,2.40
2017-12-03T09:41:44.944Z,2.50
2017-12-03T09:44:11.840Z,2.50
2017-12-03T09:46:38.951Z,2.40
2017-12-03T09:49:05.120Z,2.40
2017-12-03T09:51:31.350Z,2.50
2017-12-03T09:53:58.186Z,2.60
2017-12-03T09:56:25.027Z,2.60
2017-12-03T09:58:52.721Z,2.60
2017-12-03T10:01:18.890Z,2.60
2017-12-03T10:03:45.296Z,2.50
2017-12-03T10:06:12.198Z,2.60
2017-12-03T10:08:38.408Z,2.60
2017-12-03T10:11:04.522Z,2.50
2017-12-03T10:13:30.750Z,2.60
2017-12-03T10:15:56.846Z,2.70
2017-12-03T10:18:22.958Z,2.60
2017-12-03T10:20:49.105Z,2.60
2017-12-03T10:23:15.231Z,2.50
2017-12-03T10:25:42.526Z,2.70
2017-12-03T10:28:08.678Z,2.50
2017-12-03T10:30:34.808Z,2.60
2017-12-03T10:33:00.953Z,2.70
2017-12-03T10:35:27.104Z,2.60
2017-12-03T10:38:05.540Z,2.70
2017-12-03T10:40:31.681Z,2.80
2017-12-03T10:42:57.839Z,2.80
2017-12-03T10:45:23.941Z,2.70
2017-12-03T10:47:50.036Z,2.80
2017-12-03T10:50:16.193Z,2.70
2017-12-03T10:52:42.327Z,2.70
2017-12-03T10:55:09.390Z,2.80
2017-12-03T10:57:36.491Z,2.80
2017-12-03T11:00:03.632Z,2.80
2017-12-03T11:02:29.859Z,2.80
2017-12-03T11:04:56.117Z,2.80
2017-12-03T11:07:34.447Z,2.80
2017-12-03T11:10:00.740Z,2.90
2017-12-03T11:12:26.888Z,2.80
2017-12-03T11:14:52.992Z,2.70
2017-12-03T11:17:19.136Z,2.90
2017-12-03T11:19:45.236Z,2.90
2017-12-03T11:22:11.426Z,2.90
2017-12-03T11:24:37.620Z,3.00
2017-12-03T11:27:03.901Z,2.90
2017-12-03T11:29:30.744Z,3.00
2017-12-03T11:31:56.949Z,3.10
2017-12-03T11:34:23.182Z,3.20
2017-12-03T11:36:49.484Z,3.00
2017-12-03T11:39:15.630Z,2.90
2017-12-03T11:41:41.745Z,2.90
2017-12-03T11:44:07.922Z,2.80
2017-12-03T11:46:34.156Z,2.90
2017-12-03T11:49:00.289Z,2.80
2017-12-03T11:51:27.169Z,2.80
2017-12-03T11:53:53.298Z,2.80
2017-12-03T11:56:19.430Z,2.80
2017-12-03T11:58:45.540Z,2.90
2017-12-03T12:01:12.448Z,3.00
2017-12-03T12:03:39.437Z,3.10
2017-12-03T12:06:05.608Z,3.00
2017-12-03T12:08:31.840Z,2.90
2017-12-03T12:10:57.987Z,3.00
2017-12-03T12:13:24.141Z,3.00
2017-12-03T12:15:51.032Z,3.10
2017-12-03T12:18:17.126Z,3.10
2017-12-03T12:20:43.247Z,3.00
2017-12-03T12:23:09.374Z,3.00
2017-12-03T12:25:35.512Z,2.90
2017-12-03T12:28:01.634Z,3.00
2017-12-03T12:30:27.768Z,3.00
2017-12-03T12:32:54.016Z,3.20
2017-12-03T12:35:22.231Z,3.10
2017-12-03T12:37:48.379Z,3.00
2017-12-03T12:40:14.476Z,3.20
2017-12-03T12:42:40.626Z,3.10
2017-12-03T12:45:06.844Z,3.10
2017-12-03T12:47:33.029Z,2.90
2017-12-03T12:49:59.274Z,3.00
2017-12-03T12:52:25.403Z,3.00
2017-12-03T12:54:51.613Z,3.00
2017-12-03T12:57:18.629Z,3.10
2017-12-03T12:59:45.524Z,3.00
2017-12-03T13:02:11.633Z,3.00
2017-12-03T13:04:37.745Z,3.10
2017-12-03T13:07:04.219Z,3.10
2017-12-03T13:09:30.369Z,3.20
2017-12-03T13:11:57.212Z,3.10
2017-12-03T13:14:23.329Z,3.10
2017-12-03T13:16:52.747Z,3.20
2017-12-03T13:19:18.905Z,3.10
2017-12-03T13:21:45.786Z,3.00
2017-12-03T13:24:12.680Z,3.00
2017-12-03T13:26:39.071Z,3.00
2017-12-03T13:29:05.993Z,3.00
2017-12-03T13:31:32.146Z,3.00
2017-12-03T13:33:58.246Z,3.10
2017-12-03T13:36:25.013Z,3.00
2017-12-03T13:38:51.152Z,3.00
2017-12-03T13:41:18.005Z,3.20
2017-12-03T13:43:44.167Z,3.10
2017-12-03T13:46:10.262Z,2.90
2017-12-03T13:48:36.448Z,3.10
2017-12-03T13:51:02.800Z,3.30
2017-12-03T13:53:28.922Z,3.20
2017-12-03T13:55:55.046Z,3.20
2017-12-03T13:58:21.193Z,3.30
2017-12-03T14:00:47.325Z,3.20
2017-12-03T14:03:13.508Z,3.20
2017-12-03T14:05:40.356Z,3.20
2017-12-03T14:08:06.479Z,3.20
2017-12-03T14:10:32.594Z,3.20
2017-12-03T14:12:58.720Z,3.10
2017-12-03T14:15:25.033Z,3.20
2017-12-03T14:17:51.158Z,3.20
2017-12-03T14:20:17.304Z,3.30
2017-12-03T14:22:44.155Z,3.20
2017-12-03T14:25:10.376Z,3.10
2017-12-03T14:27:36.535Z,3.20
2017-12-03T14:30:03.404Z,3.20
2017-12-03T14:32:29.549Z,3.10
2017-12-03T14:34:55.627Z,3.40
2017-12-03T14:37:21.799Z,3.00
2017-12-03T14:39:48.035Z,3.00
2017-12-03T14:42:14.224Z,3.00
2017-12-03T14:44:40.376Z,3.20
2017-12-03T14:47:06.618Z,3.10
2017-12-03T14:49:32.748Z,3.00
2017-12-03T14:51:58.851Z,3.10
2017-12-03T14:54:25.227Z,3.20
2017-12-03T14:56:51.614Z,3.00
2017-12-03T14:59:18.144Z,3.10
2017-12-03T15:01:44.415Z,3.10
2017-12-03T15:04:10.795Z,3.10
2017-12-03T15:06:37.213Z,3.20
2017-12-03T15:09:03.598Z,3.20
2017-12-03T15:11:30.077Z,3.30
2017-12-03T15:13:56.497Z,3.20
2017-12-03T15:16:22.843Z,3.40
2017-12-03T15:18:49.152Z,3.20
2017-12-03T15:21:15.464Z,3.20
2017-12-03T15:23:41.832Z,3.20
2017-12-03T15:26:09.069Z,3.40
2017-12-03T15:28:36.275Z,3.20
2017-12-03T15:31:02.425Z,3.20
2017-12-03T15:33:28.648Z,3.20
2017-12-03T15:35:55.000Z,3.20
2017-12-03T15:38:21.132Z,3.30
2017-12-03T15:40:47.336Z,3.20
2017-12-03T15:43:13.527Z,3.20
2017-12-03T15:45:39.865Z,3.30
2017-12-03T15:48:06.301Z,2.90
2017-12-03T15:50:32.666Z,3.00
2017-12-03T15:52:58.981Z,3.30
2017-12-03T15:55:25.288Z,3.20
2017-12-03T15:57:52.426Z,3.20
2017-12-03T16:00:18.537Z,3.20
2017-12-03T16:02:44.704Z,3.30
2017-12-03T16:05:11.762Z,3.20
2017-12-03T16:07:37.938Z,3.20
2017-12-03T16:10:04.882Z,3.30
2017-12-03T16:12:31.787Z,3.20
2017-12-03T16:14:57.958Z,3.10
2017-12-03T16:17:24.079Z,3.30
2017-12-03T16:19:50.304Z,3.30
2017-12-03T16:22:16.439Z,3.50
2017-12-03T16:24:42.561Z,3.50
2017-12-03T16:27:08.688Z,3.50
2017-12-03T16:29:34.865Z,3.50
2017-12-03T16:32:01.002Z,3.40
2017-12-03T16:34:27.092Z,3.40
2017-12-03T16:36:53.221Z,3.40
2017-12-03T16:39:20.304Z,3.50
2017-12-03T16:41:47.170Z,3.50
2017-12-03T16:44:13.312Z,3.50
2017-12-03T16:46:39.725Z,3.60
2017-12-03T16:49:05.956Z,3.60
2017-12-03T16:51:32.207Z,3.50
2017-12-03T16:53:58.344Z,3.40
2017-12-03T16:56:25.208Z,3.50
2017-12-03T16:58:52.057Z,3.70
2017-12-03T17:01:18.913Z,3.80
2017-12-03T17:03:45.764Z,3.70
2017-12-03T17:06:12.761Z,3.40
2017-12-03T17:08:38.876Z,3.40
2017-12-03T17:11:05.906Z,3.60
2017-12-03T17:13:32.780Z,3.70
2017-12-03T17:15:59.640Z,3.70
2017-12-03T17:18:27.580Z,3.60
2017-12-03T17:20:54.557Z,3.60
2017-12-03T17:23:20.749Z,3.60
2017-12-03T17:25:46.909Z,3.60
2017-12-03T17:28:16.648Z,3.60
2017-12-03T17:30:42.816Z,3.50
2017-12-03T17:33:08.960Z,3.60
2017-12-03T17:35:36.034Z,3.60
2017-12-03T17:38:02.280Z,3.60
2017-12-03T17:40:29.165Z,3.70
2017-12-03T17:42:56.027Z,3.60
2017-12-03T17:45:23.719Z,3.60
2017-12-03T17:47:50.887Z,3.60
2017-12-03T17:50:17.320Z,3.40
2017-12-03T17:52:43.700Z,3.60
2017-12-03T17:55:09.996Z,3.60
2017-12-03T17:57:37.070Z,3.60
2017-12-03T18:00:04.137Z,3.50
2017-12-03T18:02:33.900Z,3.50
2017-12-03T18:05:00.336Z,3.70
2017-12-03T18:07:27.405Z,3.80
2017-12-03T18:09:54.461Z,3.90
2017-12-03T18:12:20.793Z,3.80
2017-12-03T18:14:47.092Z,3.80
2017-12-03T18:17:13.480Z,3.90
2017-12-03T18:19:45.272Z,3.90
2017-12-03T18:22:16.020Z,3.70
2017-12-03T18:24:42.155Z,3.70
2017-12-03T18:27:09.137Z,3.90
2017-12-03T18:29:35.236Z,3.90
2017-12-03T18:32:02.157Z,3.90
2017-12-03T18:34:31.226Z,4.10
2017-12-03T18:36:59.097Z,4.10
2017-12-03T18:39:27.410Z,4.10
2017-12-03T18:44:27.735Z,4.00
2017-12-03T18:47:00.154Z,4.30
2017-12-03T18:49:26.348Z,4.00
2017-12-03T18:51:52.515Z,4.00
2017-12-03T18:54:18.678Z,4.00
2017-12-03T18:56:44.856Z,3.80
2017-12-03T18:59:11.301Z,3.80
2017-12-03T19:01:37.481Z,4.10
2017-12-03T19:04:07.397Z,4.10
2017-12-03T19:06:33.524Z,4.00
2017-12-03T19:09:00.454Z,4.00
2017-12-03T19:11:27.341Z,4.00
2017-12-03T19:13:53.498Z,3.80
2017-12-03T19:16:19.654Z,3.90
2017-12-03T19:18:45.821Z,3.80
2017-12-03T19:21:16.087Z,4.10
2017-12-03T19:23:42.925Z,4.10
2017-12-03T19:26:09.043Z,4.10
2017-12-03T19:28:36.907Z,4.00
2017-12-03T19:31:03.101Z,4.40
2017-12-03T19:33:29.216Z,4.10
2017-12-03T19:38:27.417Z,4.10
2017-12-03T19:40:53.548Z,4.00
2017-12-03T19:43:19.674Z,4.00
2017-12-03T19:45:45.849Z,4.00
2017-12-03T19:48:12.012Z,4.00
2017-12-03T19:50:38.921Z,4.00
2017-12-03T19:53:11.370Z,4.00
2017-12-03T19:55:37.545Z,4.10
2017-12-03T19:58:04.387Z,4.20
2017-12-03T20:00:30.516Z,4.20
2017-12-03T20:02:56.728Z,4.10
2017-12-03T20:05:22.921Z,4.10
2017-12-03T20:07:49.041Z,4.10
2017-12-03T20:10:19.251Z,4.20
2017-12-03T20:12:46.150Z,4.30
2017-12-03T20:15:12.256Z,4.30
2017-12-03T20:17:38.375Z,4.20
2017-12-03T20:20:04.519Z,4.20
2017-12-03T20:22:30.639Z,4.20
2017-12-03T20:24:56.775Z,4.20
2017-12-03T20:27:27.453Z,4.40
2017-12-03T20:29:53.592Z,4.30
2017-12-03T20:32:19.704Z,4.20
2017-12-03T20:34:45.816Z,4.20
2017-12-03T20:37:11.970Z,4.40
2017-12-03T20:39:38.835Z,4.20
2017-12-03T20:42:05.048Z,4.20
2017-12-03T20:44:33.067Z,4.20
2017-12-03T20:46:59.197Z,4.20
2017-12-03T20:49:26.172Z,4.20
2017-12-03T20:51:52.410Z,4.20
2017-12-03T20:54:18.664Z,4.40
2017-12-03T20:56:44.824Z,4.50
2017-12-03T20:59:10.968Z,4.20
2017-12-03T21:01:37.145Z,4.40
2017-12-03T21:04:03.267Z,4.40
2017-12-03T21:06:29.426Z,4.40
2017-12-03T21:08:55.682Z,4.40
2017-12-03T21:11:21.948Z,4.40
2017-12-03T21:13:48.428Z,4.40
2017-12-03T21:16:14.596Z,4.30
2017-12-03T21:18:40.714Z,4.30
2017-12-03T21:21:06.836Z,4.30
2017-12-03T21:23:33.169Z,4.40
2017-12-03T21:25:59.490Z,4.20
2017-12-03T21:28:26.429Z,4.30
2017-12-03T21:30:52.572Z,4.30
2017-12-03T21:33:18.772Z,4.30
2017-12-03T21:35:44.880Z,4.30
2017-12-03T21:38:11.032Z,3.90
2017-12-03T21:40:38.518Z,4.40
2017-12-03T21:43:04.645Z,4.40
2017-12-03T21:45:31.027Z,4.30
2017-12-03T21:48:01.606Z,4.40
2017-12-03T21:50:27.922Z,4.20
2017-12-03T21:52:54.275Z,4.70
2017-12-03T21:55:20.688Z,4.50
2017-12-03T21:57:47.779Z,4.60
2017-12-03T22:00:15.028Z,4.60
2017-12-03T22:02:42.595Z,4.50
2017-12-03T22:05:09.051Z,4.50
2017-12-03T22:07:35.171Z,4.50
2017-12-03T22:10:01.482Z,4.50
2017-12-03T22:12:27.799Z,4.60
2017-12-03T22:14:54.954Z,4.60
2017-12-03T22:17:21.356Z,4.30
2017-12-03T22:19:48.380Z,4.50
2017-12-03T22:22:14.483Z,4.50
2017-12-03T22:24:41.342Z,4.60
2017-12-03T22:27:08.375Z,4.60
2017-12-03T22:29:34.489Z,4.60
2017-12-03T22:32:00.875Z,4.70
2017-12-03T22:34:27.169Z,4.90
2017-12-03T22:36:53.435Z,4.70
2017-12-03T22:39:19.835Z,4.70
2017-12-03T22:41:46.040Z,4.60
2017-12-03T22:44:12.335Z,4.60
2017-12-03T22:46:38.655Z,4.60
2017-12-03T22:49:07.773Z,4.50
2017-12-03T22:51:35.066Z,4.60
2017-12-03T22:54:01.254Z,4.60
2017-12-03T22:56:27.409Z,4.70
2017-12-03T22:58:54.248Z,4.70
2017-12-03T23:01:21.174Z,4.70
2017-12-03T23:03:47.401Z,4.30
2017-12-03T23:06:13.542Z,4.80
2017-12-03T23:08:39.953Z,4.70
2017-12-03T23:11:06.816Z,4.70
2017-12-03T23:13:33.434Z,4.70
2017-12-03T23:15:59.585Z,5.10
2017-12-03T23:18:25.809Z,4.90
2017-12-03T23:20:51.900Z,4.90
2017-12-03T23:23:18.030Z,4.90
2017-12-03T23:25:44.249Z,4.80
2017-12-03T23:28:10.412Z,4.80
2017-12-03T23:30:36.796Z,4.90
2017-12-03T23:33:02.945Z,4.80
2017-12-03T23:35:29.371Z,4.60
2017-12-03T23:37:55.504Z,4.80
2017-12-03T23:40:21.969Z,4.90
2017-12-03T23:42:48.852Z,4.80
2017-12-03T23:45:15.079Z,4.80
2017-12-03T23:47:42.038Z,4.90
2017-12-03T23:50:08.214Z,4.80
2017-12-03T23:52:35.025Z,4.80
2017-12-03T23:55:02.975Z,4.80
2017-12-03T23:57:29.905Z,5.00
2017-12-03T23:59:56.070Z,5.00
